sensor_id;sensor_type;location;lat;lon;timestamp;temperature;humidity
21662;DHT22;10992;48.170;8.596;2023-07-29T00:02:18;15.50;99.90
21662;DHT22;10992;48.170;8.596;2023-07-29T00:04:45;15.50;99.90
21662;DHT22;10992;48.170;8.596;2023-07-29T00:07:12;15.50;99.90
21662;DHT22;10992;48.170;8.596;2023-07-29T00:09:39;15.50;99.90
21662;DHT22;10992;48.170;8.596;2023-07-29T00:12:06;15.60;99.90
21662;DHT22;10992;48.170;8.596;2023-07-29T00:14:33;15.60;99.90
21662;DHT22;10992;48.170;8.596;2023-07-29T00:17:00;15.50;99.90
21662;DHT22;10992;48.170;8.596;2023-07-29T00:19:27;15.50;99.90
21662;DHT22;10992;48.170;8.596;2023-07-29T00:21:55;15.50;99.90
21662;DHT22;10992;48.170;8.596;2023-07-29T00:24:22;15.50;99.90
21662;DHT22;10992;48.170;8.596;2023-07-29T00:26:49;15.50;99.90
21662;DHT22;10992;48.170;8.596;2023-07-29T00:29:16;15.50;99.90
21662;DHT22;10992;48.170;8.596;2023-07-29T00:31:43;15.40;99.90
21662;DHT22;10992;48.170;8.596;2023-07-29T00:34:09;15.40;99.90
21662;DHT22;10992;48.170;8.596;2023-07-29T00:36:36;15.30;99.90
21662;DHT22;10992;48.170;8.596;2023-07-29T00:39:04;15.30;99.90
21662;DHT22;10992;48.170;8.596;2023-07-29T00:41:31;15.30;99.90
21662;DHT22;10992;48.170;8.596;2023-07-29T00:43:58;15.20;99.90
21662;DHT22;10992;48.170;8.596;2023-07-29T00:46:27;15.20;99.90
21662;DHT22;10992;48.170;8.596;2023-07-29T00:48:56;15.20;99.90
21662;DHT22;10992;48.170;8.596;2023-07-29T00:51:23;15.20;99.90
21662;DHT22;10992;48.170;8.596;2023-07-29T00:53:50;15.20;99.90
21662;DHT22;10992;48.170;8.596;2023-07-29T00:56:17;15.20;99.90
21662;DHT22;10992;48.170;8.596;2023-07-29T00:58:44;15.20;99.90
21662;DHT22;10992;48.170;8.596;2023-07-29T01:01:12;15.20;99.90
21662;DHT22;10992;48.170;8.596;2023-07-29T01:03:40;15.10;99.90
21662;DHT22;10992;48.170;8.596;2023-07-29T01:06:30;15.10;99.90
21662;DHT22;10992;48.170;8.596;2023-07-29T01:09:11;15.20;99.90
21662;DHT22;10992;48.170;8.596;2023-07-29T01:12:08;15.10;99.90
21662;DHT22;10992;48.170;8.596;2023-07-29T01:17:15;15.00;99.90
21662;DHT22;10992;48.170;8.596;2023-07-29T01:20:01;15.00;99.90
21662;DHT22;10992;48.170;8.596;2023-07-29T01:22:36;15.00;99.90
21662;DHT22;10992;48.170;8.596;2023-07-29T01:25:04;15.00;99.90
21662;DHT22;10992;48.170;8.596;2023-07-29T01:27:31;15.00;99.90
21662;DHT22;10992;48.170;8.596;2023-07-29T01:29:59;15.00;99.90
21662;DHT22;10992;48.170;8.596;2023-07-29T01:32:38;14.90;99.90
21662;DHT22;10992;48.170;8.596;2023-07-29T01:37:37;14.90;99.90
21662;DHT22;10992;48.170;8.596;2023-07-29T01:40:07;14.90;99.90
21662;DHT22;10992;48.170;8.596;2023-07-29T01:42:35;14.90;99.90
21662;DHT22;10992;48.170;8.596;2023-07-29T01:45:02;14.90;99.90
21662;DHT22;10992;48.170;8.596;2023-07-29T01:47:29;14.90;99.90
21662;DHT22;10992;48.170;8.596;2023-07-29T01:49:56;14.90;99.90
21662;DHT22;10992;48.170;8.596;2023-07-29T01:52:23;14.90;99.90
21662;DHT22;10992;48.170;8.596;2023-07-29T01:54:50;14.90;99.90
21662;DHT22;10992;48.170;8.596;2023-07-29T01:57:16;14.90;99.90
21662;DHT22;10992;48.170;8.596;2023-07-29T01:59:43;14.80;99.90
21662;DHT22;10992;48.170;8.596;2023-07-29T02:02:10;14.90;99.90
21662;DHT22;10992;48.170;8.596;2023-07-29T02:04:37;14.90;99.90
21662;DHT22;10992;48.170;8.596;2023-07-29T02:07:05;14.90;99.90
21662;DHT22;10992;48.170;8.596;2023-07-29T02:09:31;14.90;99.90
21662;DHT22;10992;48.170;8.596;2023-07-29T02:11:58;15.00;99.90
21662;DHT22;10992;48.170;8.596;2023-07-29T02:14:25;15.00;99.90
21662;DHT22;10992;48.170;8.596;2023-07-29T02:16:52;14.90;99.90
21662;DHT22;10992;48.170;8.596;2023-07-29T02:19:19;14.90;99.90
21662;DHT22;10992;48.170;8.596;2023-07-29T02:21:46;14.90;99.90
21662;DHT22;10992;48.170;8.596;2023-07-29T02:24:13;14.90;99.90
21662;DHT22;10992;48.170;8.596;2023-07-29T02:26:41;14.90;99.90
21662;DHT22;10992;48.170;8.596;2023-07-29T02:29:08;15.00;99.90
21662;DHT22;10992;48.170;8.596;2023-07-29T02:31:35;15.10;99.90
21662;DHT22;10992;48.170;8.596;2023-07-29T02:34:04;15.10;99.90
21662;DHT22;10992;48.170;8.596;2023-07-29T02:36:31;15.20;99.90
21662;DHT22;10992;48.170;8.596;2023-07-29T02:38:58;15.30;99.90
21662;DHT22;10992;48.170;8.596;2023-07-29T02:41:25;15.30;99.90
21662;DHT22;10992;48.170;8.596;2023-07-29T02:43:52;15.40;99.90
21662;DHT22;10992;48.170;8.596;2023-07-29T02:46:19;15.50;99.90
21662;DHT22;10992;48.170;8.596;2023-07-29T02:48:46;15.50;99.90
21662;DHT22;10992;48.170;8.596;2023-07-29T02:51:13;15.60;99.90
21662;DHT22;10992;48.170;8.596;2023-07-29T02:53:40;15.60;99.90
21662;DHT22;10992;48.170;8.596;2023-07-29T02:56:07;15.70;99.90
21662;DHT22;10992;48.170;8.596;2023-07-29T02:58:37;15.70;99.90
21662;DHT22;10992;48.170;8.596;2023-07-29T03:01:05;15.80;99.90
21662;DHT22;10992;48.170;8.596;2023-07-29T03:03:33;15.80;99.90
21662;DHT22;10992;48.170;8.596;2023-07-29T03:06:06;15.80;99.90
21662;DHT22;10992;48.170;8.596;2023-07-29T03:08:34;15.90;99.90
21662;DHT22;10992;48.170;8.596;2023-07-29T03:11:09;15.90;99.90
21662;DHT22;10992;48.170;8.596;2023-07-29T03:13:37;15.90;99.90
21662;DHT22;10992;48.170;8.596;2023-07-29T03:16:11;15.90;99.90
21662;DHT22;10992;48.170;8.596;2023-07-29T03:18:40;15.80;99.90
21662;DHT22;10992;48.170;8.596;2023-07-29T03:21:07;15.80;99.90
21662;DHT22;10992;48.170;8.596;2023-07-29T03:23:34;15.80;99.90
21662;DHT22;10992;48.170;8.596;2023-07-29T03:26:03;15.80;99.90
21662;DHT22;10992;48.170;8.596;2023-07-29T03:28:43;15.80;99.90
21662;DHT22;10992;48.170;8.596;2023-07-29T03:31:10;15.80;99.90
21662;DHT22;10992;48.170;8.596;2023-07-29T03:33:38;15.80;99.90
21662;DHT22;10992;48.170;8.596;2023-07-29T03:36:05;15.70;99.90
21662;DHT22;10992;48.170;8.596;2023-07-29T03:38:32;15.70;99.90
21662;DHT22;10992;48.170;8.596;2023-07-29T03:41:02;15.70;99.90
21662;DHT22;10992;48.170;8.596;2023-07-29T03:43:30;15.60;99.90
21662;DHT22;10992;48.170;8.596;2023-07-29T03:46:00;15.60;99.90
21662;DHT22;10992;48.170;8.596;2023-07-29T03:48:27;15.50;99.90
21662;DHT22;10992;48.170;8.596;2023-07-29T03:50:54;15.50;99.90
21662;DHT22;10992;48.170;8.596;2023-07-29T03:53:21;15.50;99.90
21662;DHT22;10992;48.170;8.596;2023-07-29T03:55:48;15.40;99.90
21662;DHT22;10992;48.170;8.596;2023-07-29T03:58:16;15.40;99.90
21662;DHT22;10992;48.170;8.596;2023-07-29T04:00:43;15.40;99.90
21662;DHT22;10992;48.170;8.596;2023-07-29T04:03:10;15.50;99.90
21662;DHT22;10992;48.170;8.596;2023-07-29T04:05:37;15.50;99.90
21662;DHT22;10992;48.170;8.596;2023-07-29T04:08:04;15.60;99.90
21662;DHT22;10992;48.170;8.596;2023-07-29T04:10:31;15.70;99.90
21662;DHT22;10992;48.170;8.596;2023-07-29T04:12:58;15.70;99.90
21662;DHT22;10992;48.170;8.596;2023-07-29T04:15:25;15.70;99.90
21662;DHT22;10992;48.170;8.596;2023-07-29T04:17:52;15.80;99.90
21662;DHT22;10992;48.170;8.596;2023-07-29T04:20:19;15.80;99.90
21662;DHT22;10992;48.170;8.596;2023-07-29T04:22:46;15.90;99.90
21662;DHT22;10992;48.170;8.596;2023-07-29T04:25:13;16.00;99.90
21662;DHT22;10992;48.170;8.596;2023-07-29T04:27:41;16.00;99.90
21662;DHT22;10992;48.170;8.596;2023-07-29T04:30:08;16.00;99.90
21662;DHT22;10992;48.170;8.596;2023-07-29T04:32:35;16.00;99.90
21662;DHT22;10992;48.170;8.596;2023-07-29T04:35:07;16.00;99.90
21662;DHT22;10992;48.170;8.596;2023-07-29T04:37:36;16.00;99.90
21662;DHT22;10992;48.170;8.596;2023-07-29T04:40:03;16.00;99.90
21662;DHT22;10992;48.170;8.596;2023-07-29T04:42:30;16.00;99.90
21662;DHT22;10992;48.170;8.596;2023-07-29T04:44:58;16.00;99.90
21662;DHT22;10992;48.170;8.596;2023-07-29T04:47:25;16.10;99.90
21662;DHT22;10992;48.170;8.596;2023-07-29T04:49:53;16.10;99.90
21662;DHT22;10992;48.170;8.596;2023-07-29T04:52:20;16.20;99.90
21662;DHT22;10992;48.170;8.596;2023-07-29T04:54:48;16.30;99.90
21662;DHT22;10992;48.170;8.596;2023-07-29T04:57:15;16.30;99.90
21662;DHT22;10992;48.170;8.596;2023-07-29T04:59:42;16.40;99.90
21662;DHT22;10992;48.170;8.596;2023-07-29T05:02:09;16.50;99.90
21662;DHT22;10992;48.170;8.596;2023-07-29T05:04:36;16.60;99.90
21662;DHT22;10992;48.170;8.596;2023-07-29T05:07:03;16.70;99.90
21662;DHT22;10992;48.170;8.596;2023-07-29T05:09:31;16.70;99.90
21662;DHT22;10992;48.170;8.596;2023-07-29T05:11:58;16.70;99.90
21662;DHT22;10992;48.170;8.596;2023-07-29T05:14:25;16.80;99.90
21662;DHT22;10992;48.170;8.596;2023-07-29T05:16:51;17.00;99.90
21662;DHT22;10992;48.170;8.596;2023-07-29T05:19:18;17.40;99.90
21662;DHT22;10992;48.170;8.596;2023-07-29T05:21:45;17.90;99.90
21662;DHT22;10992;48.170;8.596;2023-07-29T05:24:13;18.50;99.90
21662;DHT22;10992;48.170;8.596;2023-07-29T05:26:39;19.10;99.90
21662;DHT22;10992;48.170;8.596;2023-07-29T05:29:06;19.80;99.90
21662;DHT22;10992;48.170;8.596;2023-07-29T05:31:33;20.30;99.90
21662;DHT22;10992;48.170;8.596;2023-07-29T05:34:00;20.30;99.90
21662;DHT22;10992;48.170;8.596;2023-07-29T05:36:27;20.80;99.90
21662;DHT22;10992;48.170;8.596;2023-07-29T05:38:54;20.00;99.90
21662;DHT22;10992;48.170;8.596;2023-07-29T05:41:21;19.20;99.90
21662;DHT22;10992;48.170;8.596;2023-07-29T05:43:49;18.80;99.90
21662;DHT22;10992;48.170;8.596;2023-07-29T05:46:15;18.50;99.90
21662;DHT22;10992;48.170;8.596;2023-07-29T05:48:42;18.80;99.90
21662;DHT22;10992;48.170;8.596;2023-07-29T05:51:09;19.80;99.90
21662;DHT22;10992;48.170;8.596;2023-07-29T05:53:36;20.60;99.90
21662;DHT22;10992;48.170;8.596;2023-07-29T05:56:03;21.40;99.90
21662;DHT22;10992;48.170;8.596;2023-07-29T05:58:31;21.60;99.90
21662;DHT22;10992;48.170;8.596;2023-07-29T06:00:58;22.50;99.90
21662;DHT22;10992;48.170;8.596;2023-07-29T06:03:25;23.20;99.90
21662;DHT22;10992;48.170;8.596;2023-07-29T06:05:54;23.60;99.90
21662;DHT22;10992;48.170;8.596;2023-07-29T06:08:21;22.80;99.90
21662;DHT22;10992;48.170;8.596;2023-07-29T06:10:48;21.40;99.90
21662;DHT22;10992;48.170;8.596;2023-07-29T06:13:15;20.50;99.90
21662;DHT22;10992;48.170;8.596;2023-07-29T06:15:43;19.90;99.90
21662;DHT22;10992;48.170;8.596;2023-07-29T06:18:10;19.50;99.90
21662;DHT22;10992;48.170;8.596;2023-07-29T06:20:37;19.20;99.90
21662;DHT22;10992;48.170;8.596;2023-07-29T06:23:05;19.00;99.90
21662;DHT22;10992;48.170;8.596;2023-07-29T06:25:32;18.80;99.90
21662;DHT22;10992;48.170;8.596;2023-07-29T06:27:59;18.70;99.90
21662;DHT22;10992;48.170;8.596;2023-07-29T06:30:26;18.70;99.90
21662;DHT22;10992;48.170;8.596;2023-07-29T06:32:53;18.80;99.90
21662;DHT22;10992;48.170;8.596;2023-07-29T06:35:20;18.80;99.90
21662;DHT22;10992;48.170;8.596;2023-07-29T06:37:47;19.00;99.90
21662;DHT22;10992;48.170;8.596;2023-07-29T06:40:14;19.00;99.90
21662;DHT22;10992;48.170;8.596;2023-07-29T06:42:40;19.20;99.90
21662;DHT22;10992;48.170;8.596;2023-07-29T06:45:08;19.40;99.90
21662;DHT22;10992;48.170;8.596;2023-07-29T06:47:35;19.60;99.90
21662;DHT22;10992;48.170;8.596;2023-07-29T06:50:02;19.30;99.90
21662;DHT22;10992;48.170;8.596;2023-07-29T06:52:29;19.30;99.90
21662;DHT22;10992;48.170;8.596;2023-07-29T06:54:55;19.30;99.90
21662;DHT22;10992;48.170;8.596;2023-07-29T06:57:23;19.40;99.90
21662;DHT22;10992;48.170;8.596;2023-07-29T06:59:50;19.30;99.90
21662;DHT22;10992;48.170;8.596;2023-07-29T07:02:17;19.20;99.90
21662;DHT22;10992;48.170;8.596;2023-07-29T07:04:43;20.30;99.90
21662;DHT22;10992;48.170;8.596;2023-07-29T07:07:10;21.30;99.90
21662;DHT22;10992;48.170;8.596;2023-07-29T07:09:37;21.50;99.90
21662;DHT22;10992;48.170;8.596;2023-07-29T07:12:05;21.10;99.90
21662;DHT22;10992;48.170;8.596;2023-07-29T07:14:32;20.60;99.90
21662;DHT22;10992;48.170;8.596;2023-07-29T07:16:59;20.20;99.90
21662;DHT22;10992;48.170;8.596;2023-07-29T07:19:26;20.00;99.90
21662;DHT22;10992;48.170;8.596;2023-07-29T07:21:52;19.90;99.90
21662;DHT22;10992;48.170;8.596;2023-07-29T07:24:19;19.70;99.90
21662;DHT22;10992;48.170;8.596;2023-07-29T07:26:46;19.40;99.90
21662;DHT22;10992;48.170;8.596;2023-07-29T07:29:13;19.20;99.90
21662;DHT22;10992;48.170;8.596;2023-07-29T07:31:40;19.00;99.90
21662;DHT22;10992;48.170;8.596;2023-07-29T07:34:07;18.50;99.90
21662;DHT22;10992;48.170;8.596;2023-07-29T07:36:33;18.00;99.90
21662;DHT22;10992;48.170;8.596;2023-07-29T07:39:01;17.60;99.90
21662;DHT22;10992;48.170;8.596;2023-07-29T07:41:27;17.30;99.90
21662;DHT22;10992;48.170;8.596;2023-07-29T07:43:55;17.10;99.90
21662;DHT22;10992;48.170;8.596;2023-07-29T07:46:22;17.20;99.90
21662;DHT22;10992;48.170;8.596;2023-07-29T07:48:49;17.50;99.90
21662;DHT22;10992;48.170;8.596;2023-07-29T07:51:16;17.90;99.90
21662;DHT22;10992;48.170;8.596;2023-07-29T07:53:43;18.30;99.90
21662;DHT22;10992;48.170;8.596;2023-07-29T07:56:09;18.40;99.90
21662;DHT22;10992;48.170;8.596;2023-07-29T07:58:36;18.70;99.90
21662;DHT22;10992;48.170;8.596;2023-07-29T08:01:07;19.40;99.90
21662;DHT22;10992;48.170;8.596;2023-07-29T08:03:35;19.50;99.90
21662;DHT22;10992;48.170;8.596;2023-07-29T08:06:02;19.90;99.90
21662;DHT22;10992;48.170;8.596;2023-07-29T08:08:29;20.00;99.90
21662;DHT22;10992;48.170;8.596;2023-07-29T08:10:57;20.80;99.90
21662;DHT22;10992;48.170;8.596;2023-07-29T08:13:24;22.20;99.90
21662;DHT22;10992;48.170;8.596;2023-07-29T08:15:52;23.10;99.90
21662;DHT22;10992;48.170;8.596;2023-07-29T08:18:20;24.20;99.90
21662;DHT22;10992;48.170;8.596;2023-07-29T08:20:59;24.80;99.90
21662;DHT22;10992;48.170;8.596;2023-07-29T08:23:31;25.30;99.90
21662;DHT22;10992;48.170;8.596;2023-07-29T08:26:00;25.50;99.90
21662;DHT22;10992;48.170;8.596;2023-07-29T08:28:30;26.00;99.90
21662;DHT22;10992;48.170;8.596;2023-07-29T08:30:58;26.00;99.90
21662;DHT22;10992;48.170;8.596;2023-07-29T08:33:25;26.30;99.90
21662;DHT22;10992;48.170;8.596;2023-07-29T08:35:53;26.50;99.90
21662;DHT22;10992;48.170;8.596;2023-07-29T08:38:20;26.50;99.90
21662;DHT22;10992;48.170;8.596;2023-07-29T08:41:04;26.60;99.90
21662;DHT22;10992;48.170;8.596;2023-07-29T08:43:32;26.50;99.90
21662;DHT22;10992;48.170;8.596;2023-07-29T08:46:00;26.80;99.90
21662;DHT22;10992;48.170;8.596;2023-07-29T08:48:40;26.60;99.90
21662;DHT22;10992;48.170;8.596;2023-07-29T08:51:11;26.20;99.90
21662;DHT22;10992;48.170;8.596;2023-07-29T08:53:39;25.90;99.90
21662;DHT22;10992;48.170;8.596;2023-07-29T08:56:07;26.10;99.90
21662;DHT22;10992;48.170;8.596;2023-07-29T08:58:34;26.50;99.90
21662;DHT22;10992;48.170;8.596;2023-07-29T09:01:01;26.90;99.90
21662;DHT22;10992;48.170;8.596;2023-07-29T09:03:28;27.90;99.90
21662;DHT22;10992;48.170;8.596;2023-07-29T09:05:56;27.80;99.90
21662;DHT22;10992;48.170;8.596;2023-07-29T09:08:25;27.00;99.90
21662;DHT22;10992;48.170;8.596;2023-07-29T09:10:53;25.60;99.90
21662;DHT22;10992;48.170;8.596;2023-07-29T09:13:21;24.50;99.90
21662;DHT22;10992;48.170;8.596;2023-07-29T09:15:48;23.50;99.90
21662;DHT22;10992;48.170;8.596;2023-07-29T09:18:16;23.60;99.90
21662;DHT22;10992;48.170;8.596;2023-07-29T09:20:44;23.70;99.90
21662;DHT22;10992;48.170;8.596;2023-07-29T09:23:13;23.00;99.90
21662;DHT22;10992;48.170;8.596;2023-07-29T09:25:40;22.50;99.90
21662;DHT22;10992;48.170;8.596;2023-07-29T09:28:13;22.20;99.90
21662;DHT22;10992;48.170;8.596;2023-07-29T09:30:41;22.70;99.90
21662;DHT22;10992;48.170;8.596;2023-07-29T09:33:12;24.10;99.90
21662;DHT22;10992;48.170;8.596;2023-07-29T09:35:39;25.90;99.90
21662;DHT22;10992;48.170;8.596;2023-07-29T09:38:06;27.20;99.90
21662;DHT22;10992;48.170;8.596;2023-07-29T09:40:38;26.80;99.90
21662;DHT22;10992;48.170;8.596;2023-07-29T09:43:06;27.10;99.90
21662;DHT22;10992;48.170;8.596;2023-07-29T09:45:35;27.10;99.90
21662;DHT22;10992;48.170;8.596;2023-07-29T09:48:03;27.30;99.90
21662;DHT22;10992;48.170;8.596;2023-07-29T09:50:31;28.30;99.90
21662;DHT22;10992;48.170;8.596;2023-07-29T09:52:58;27.50;99.90
21662;DHT22;10992;48.170;8.596;2023-07-29T09:55:26;27.30;99.90
21662;DHT22;10992;48.170;8.596;2023-07-29T09:58:00;26.10;99.90
21662;DHT22;10992;48.170;8.596;2023-07-29T10:00:31;25.70;99.90
21662;DHT22;10992;48.170;8.596;2023-07-29T10:02:59;25.50;99.90
21662;DHT22;10992;48.170;8.596;2023-07-29T10:05:27;26.40;99.90
21662;DHT22;10992;48.170;8.596;2023-07-29T10:07:55;26.80;99.90
21662;DHT22;10992;48.170;8.596;2023-07-29T10:10:23;27.00;99.90
21662;DHT22;10992;48.170;8.596;2023-07-29T10:12:50;26.70;99.90
21662;DHT22;10992;48.170;8.596;2023-07-29T10:15:17;26.00;99.90
21662;DHT22;10992;48.170;8.596;2023-07-29T10:17:46;25.90;99.90
21662;DHT22;10992;48.170;8.596;2023-07-29T10:20:16;26.20;99.90
21662;DHT22;10992;48.170;8.596;2023-07-29T10:22:46;26.10;99.90
21662;DHT22;10992;48.170;8.596;2023-07-29T10:25:17;25.80;99.90
21662;DHT22;10992;48.170;8.596;2023-07-29T10:27:52;25.80;99.90
21662;DHT22;10992;48.170;8.596;2023-07-29T10:30:20;26.20;99.90
21662;DHT22;10992;48.170;8.596;2023-07-29T10:32:48;27.00;99.90
21662;DHT22;10992;48.170;8.596;2023-07-29T10:35:16;26.60;99.90
21662;DHT22;10992;48.170;8.596;2023-07-29T10:37:43;26.80;99.90
21662;DHT22;10992;48.170;8.596;2023-07-29T10:40:11;27.00;99.90
21662;DHT22;10992;48.170;8.596;2023-07-29T10:42:38;27.00;99.90
21662;DHT22;10992;48.170;8.596;2023-07-29T10:45:25;27.20;99.90
21662;DHT22;10992;48.170;8.596;2023-07-29T10:47:52;27.40;99.90
21662;DHT22;10992;48.170;8.596;2023-07-29T10:50:20;27.90;99.90
21662;DHT22;10992;48.170;8.596;2023-07-29T10:52:52;27.70;99.90
21662;DHT22;10992;48.170;8.596;2023-07-29T10:55:26;27.40;99.90
21662;DHT22;10992;48.170;8.596;2023-07-29T10:58:08;27.80;99.90
21662;DHT22;10992;48.170;8.596;2023-07-29T11:00:35;27.90;99.90
21662;DHT22;10992;48.170;8.596;2023-07-29T11:03:07;27.70;99.90
21662;DHT22;10992;48.170;8.596;2023-07-29T11:05:48;27.40;99.90
21662;DHT22;10992;48.170;8.596;2023-07-29T11:08:35;27.60;99.90
21662;DHT22;10992;48.170;8.596;2023-07-29T11:11:07;27.50;99.90
21662;DHT22;10992;48.170;8.596;2023-07-29T11:13:36;27.10;99.90
21662;DHT22;10992;48.170;8.596;2023-07-29T11:16:04;27.10;99.90
21662;DHT22;10992;48.170;8.596;2023-07-29T11:18:33;26.60;99.90
21662;DHT22;10992;48.170;8.596;2023-07-29T11:21:02;26.30;99.90
21662;DHT22;10992;48.170;8.596;2023-07-29T11:23:35;26.00;99.90
21662;DHT22;10992;48.170;8.596;2023-07-29T11:26:03;26.20;99.90
21662;DHT22;10992;48.170;8.596;2023-07-29T11:28:30;26.40;99.90
21662;DHT22;10992;48.170;8.596;2023-07-29T11:30:58;26.50;99.90
21662;DHT22;10992;48.170;8.596;2023-07-29T11:33:26;26.60;99.90
21662;DHT22;10992;48.170;8.596;2023-07-29T11:35:55;26.80;99.90
21662;DHT22;10992;48.170;8.596;2023-07-29T11:38:23;26.40;99.90
21662;DHT22;10992;48.170;8.596;2023-07-29T11:40:58;26.30;99.90
21662;DHT22;10992;48.170;8.596;2023-07-29T11:43:25;26.70;99.90
21662;DHT22;10992;48.170;8.596;2023-07-29T11:45:53;26.90;99.90
21662;DHT22;10992;48.170;8.596;2023-07-29T11:48:28;27.00;99.90
21662;DHT22;10992;48.170;8.596;2023-07-29T11:50:54;27.50;99.90
21662;DHT22;10992;48.170;8.596;2023-07-29T11:53:22;27.80;99.90
21662;DHT22;10992;48.170;8.596;2023-07-29T11:55:52;27.70;99.90
21662;DHT22;10992;48.170;8.596;2023-07-29T11:58:21;27.60;99.90
21662;DHT22;10992;48.170;8.596;2023-07-29T12:00:48;27.70;99.90
21662;DHT22;10992;48.170;8.596;2023-07-29T12:03:16;27.90;99.90
21662;DHT22;10992;48.170;8.596;2023-07-29T12:05:45;28.30;99.90
21662;DHT22;10992;48.170;8.596;2023-07-29T12:08:12;28.40;99.90
21662;DHT22;10992;48.170;8.596;2023-07-29T12:10:40;28.40;99.90
21662;DHT22;10992;48.170;8.596;2023-07-29T12:13:08;28.30;99.90
21662;DHT22;10992;48.170;8.596;2023-07-29T12:15:35;28.00;99.90
21662;DHT22;10992;48.170;8.596;2023-07-29T12:18:04;27.90;99.90
21662;DHT22;10992;48.170;8.596;2023-07-29T12:20:31;27.40;99.90
21662;DHT22;10992;48.170;8.596;2023-07-29T12:22:59;27.40;99.90
21662;DHT22;10992;48.170;8.596;2023-07-29T12:25:32;27.30;99.90
21662;DHT22;10992;48.170;8.596;2023-07-29T12:28:06;27.00;99.90
21662;DHT22;10992;48.170;8.596;2023-07-29T12:30:34;26.90;99.90
21662;DHT22;10992;48.170;8.596;2023-07-29T12:33:01;27.20;99.90
21662;DHT22;10992;48.170;8.596;2023-07-29T12:35:38;27.20;99.90
21662;DHT22;10992;48.170;8.596;2023-07-29T12:38:05;27.30;99.90
21662;DHT22;10992;48.170;8.596;2023-07-29T12:40:32;27.40;99.90
21662;DHT22;10992;48.170;8.596;2023-07-29T12:42:58;27.60;99.90
21662;DHT22;10992;48.170;8.596;2023-07-29T12:45:26;27.30;99.90
21662;DHT22;10992;48.170;8.596;2023-07-29T12:47:56;26.80;99.90
21662;DHT22;10992;48.170;8.596;2023-07-29T12:50:23;26.40;99.90
21662;DHT22;10992;48.170;8.596;2023-07-29T12:52:50;26.70;99.90
21662;DHT22;10992;48.170;8.596;2023-07-29T12:55:17;27.30;99.90
21662;DHT22;10992;48.170;8.596;2023-07-29T12:57:50;27.30;99.90
21662;DHT22;10992;48.170;8.596;2023-07-29T13:00:17;27.00;99.90
21662;DHT22;10992;48.170;8.596;2023-07-29T13:02:44;27.00;99.90
21662;DHT22;10992;48.170;8.596;2023-07-29T13:05:11;27.10;99.90
21662;DHT22;10992;48.170;8.596;2023-07-29T13:07:39;26.90;99.90
21662;DHT22;10992;48.170;8.596;2023-07-29T13:10:07;26.80;99.90
21662;DHT22;10992;48.170;8.596;2023-07-29T13:12:34;26.70;99.90
21662;DHT22;10992;48.170;8.596;2023-07-29T13:15:02;26.40;99.90
21662;DHT22;10992;48.170;8.596;2023-07-29T13:17:28;26.30;99.90
21662;DHT22;10992;48.170;8.596;2023-07-29T13:19:56;26.10;99.90
21662;DHT22;10992;48.170;8.596;2023-07-29T13:22:22;26.10;99.90
21662;DHT22;10992;48.170;8.596;2023-07-29T13:24:49;25.60;99.90
21662;DHT22;10992;48.170;8.596;2023-07-29T13:27:16;25.30;99.90
21662;DHT22;10992;48.170;8.596;2023-07-29T13:29:43;25.20;99.90
21662;DHT22;10992;48.170;8.596;2023-07-29T13:32:10;25.30;99.90
21662;DHT22;10992;48.170;8.596;2023-07-29T13:34:37;25.20;99.90
21662;DHT22;10992;48.170;8.596;2023-07-29T13:37:06;25.00;99.90
21662;DHT22;10992;48.170;8.596;2023-07-29T13:39:33;24.80;99.90
21662;DHT22;10992;48.170;8.596;2023-07-29T13:42:00;24.90;99.90
21662;DHT22;10992;48.170;8.596;2023-07-29T13:44:27;25.00;99.90
21662;DHT22;10992;48.170;8.596;2023-07-29T13:46:54;24.80;99.90
21662;DHT22;10992;48.170;8.596;2023-07-29T13:49:21;25.10;99.90
21662;DHT22;10992;48.170;8.596;2023-07-29T13:51:48;25.30;99.90
21662;DHT22;10992;48.170;8.596;2023-07-29T13:54:15;25.30;99.90
21662;DHT22;10992;48.170;8.596;2023-07-29T13:56:42;25.50;99.90
21662;DHT22;10992;48.170;8.596;2023-07-29T13:59:08;25.70;99.90
21662;DHT22;10992;48.170;8.596;2023-07-29T14:01:35;25.50;99.90
21662;DHT22;10992;48.170;8.596;2023-07-29T14:04:02;25.50;99.90
21662;DHT22;10992;48.170;8.596;2023-07-29T14:06:29;25.60;99.90
21662;DHT22;10992;48.170;8.596;2023-07-29T14:09:12;25.60;99.90
21662;DHT22;10992;48.170;8.596;2023-07-29T14:11:39;25.80;99.90
21662;DHT22;10992;48.170;8.596;2023-07-29T14:14:07;26.10;99.90
21662;DHT22;10992;48.170;8.596;2023-07-29T14:16:34;25.90;99.90
21662;DHT22;10992;48.170;8.596;2023-07-29T14:19:01;26.10;99.90
21662;DHT22;10992;48.170;8.596;2023-07-29T14:21:28;25.90;99.90
21662;DHT22;10992;48.170;8.596;2023-07-29T14:23:55;26.10;99.90
21662;DHT22;10992;48.170;8.596;2023-07-29T14:26:22;26.60;99.90
21662;DHT22;10992;48.170;8.596;2023-07-29T14:28:49;27.00;99.90
21662;DHT22;10992;48.170;8.596;2023-07-29T14:31:17;27.00;99.90
21662;DHT22;10992;48.170;8.596;2023-07-29T14:33:44;26.70;99.90
21662;DHT22;10992;48.170;8.596;2023-07-29T14:36:11;26.80;99.90
21662;DHT22;10992;48.170;8.596;2023-07-29T14:38:38;26.20;99.90
21662;DHT22;10992;48.170;8.596;2023-07-29T14:41:05;25.90;99.90
21662;DHT22;10992;48.170;8.596;2023-07-29T14:43:31;25.90;99.90
21662;DHT22;10992;48.170;8.596;2023-07-29T14:45:58;26.10;99.90
21662;DHT22;10992;48.170;8.596;2023-07-29T14:48:25;25.60;99.90
21662;DHT22;10992;48.170;8.596;2023-07-29T14:50:52;25.20;99.90
21662;DHT22;10992;48.170;8.596;2023-07-29T14:53:19;24.70;99.90
21662;DHT22;10992;48.170;8.596;2023-07-29T14:55:46;24.20;99.90
21662;DHT22;10992;48.170;8.596;2023-07-29T14:58:13;24.00;99.90
21662;DHT22;10992;48.170;8.596;2023-07-29T15:00:40;23.60;99.90
21662;DHT22;10992;48.170;8.596;2023-07-29T15:03:07;23.40;99.90
21662;DHT22;10992;48.170;8.596;2023-07-29T15:05:34;23.50;99.90
21662;DHT22;10992;48.170;8.596;2023-07-29T15:08:01;23.50;99.90
21662;DHT22;10992;48.170;8.596;2023-07-29T15:10:28;23.60;99.90
21662;DHT22;10992;48.170;8.596;2023-07-29T15:12:55;23.60;99.90
21662;DHT22;10992;48.170;8.596;2023-07-29T15:15:22;23.60;99.90
21662;DHT22;10992;48.170;8.596;2023-07-29T15:17:49;23.30;99.90
21662;DHT22;10992;48.170;8.596;2023-07-29T15:20:16;23.00;99.90
21662;DHT22;10992;48.170;8.596;2023-07-29T15:22:43;22.80;99.90
21662;DHT22;10992;48.170;8.596;2023-07-29T15:25:10;21.90;99.90
21662;DHT22;10992;48.170;8.596;2023-07-29T15:27:37;20.90;99.90
21662;DHT22;10992;48.170;8.596;2023-07-29T15:30:06;20.30;99.90
21662;DHT22;10992;48.170;8.596;2023-07-29T15:32:33;19.90;99.90
21662;DHT22;10992;48.170;8.596;2023-07-29T15:35:00;19.80;99.90
21662;DHT22;10992;48.170;8.596;2023-07-29T15:37:27;19.70;99.90
21662;DHT22;10992;48.170;8.596;2023-07-29T15:39:54;19.70;99.90
21662;DHT22;10992;48.170;8.596;2023-07-29T15:42:21;19.60;99.90